sensor_id;sensor_type;location;lat;lon;timestamp;P1;durP1;ratioP1;P2;durP2;ratioP2
11189;SDS011;5651;50.926;4.718;2023-02-28T00:00:29;20.20;;;12.75;;
11189;SDS011;5651;50.926;4.718;2023-02-28T00:02:55;21.15;;;12.55;;
11189;SDS011;5651;50.926;4.718;2023-02-28T00:05:22;19.85;;;12.90;;
11189;SDS011;5651;50.926;4.718;2023-02-28T00:07:49;19.40;;;13.60;;
11189;SDS011;5651;50.926;4.718;2023-02-28T00:10:17;18.45;;;13.00;;
11189;SDS011;5651;50.926;4.718;2023-02-28T00:12:48;20.38;;;13.82;;
11189;SDS011;5651;50.926;4.718;2023-02-28T00:15:14;18.88;;;13.30;;
11189;SDS011;5651;50.926;4.718;2023-02-28T00:17:40;17.92;;;12.48;;
11189;SDS011;5651;50.926;4.718;2023-02-28T00:20:07;18.58;;;12.07;;
11189;SDS011;5651;50.926;4.718;2023-02-28T00:22:35;17.92;;;12.55;;
11189;SDS011;5651;50.926;4.718;2023-02-28T00:25:03;17.52;;;12.07;;
11189;SDS011;5651;50.926;4.718;2023-02-28T00:27:29;19.05;;;12.73;;
11189;SDS011;5651;50.926;4.718;2023-02-28T00:29:55;19.10;;;11.90;;
11189;SDS011;5651;50.926;4.718;2023-02-28T00:32:21;16.95;;;12.07;;
11189;SDS011;5651;50.926;4.718;2023-02-28T00:34:48;17.25;;;11.93;;
11189;SDS011;5651;50.926;4.718;2023-02-28T00:37:14;17.40;;;12.00;;
11189;SDS011;5651;50.926;4.718;2023-02-28T00:39:40;17.85;;;11.95;;
11189;SDS011;5651;50.926;4.718;2023-02-28T00:42:06;17.08;;;11.45;;
11189;SDS011;5651;50.926;4.718;2023-02-28T00:44:33;17.20;;;12.35;;
11189;SDS011;5651;50.926;4.718;2023-02-28T00:46:59;19.30;;;12.27;;
11189;SDS011;5651;50.926;4.718;2023-02-28T00:49:26;18.45;;;12.40;;
11189;SDS011;5651;50.926;4.718;2023-02-28T00:51:53;20.17;;;12.57;;
11189;SDS011;5651;50.926;4.718;2023-02-28T00:54:20;21.63;;;11.40;;
11189;SDS011;5651;50.926;4.718;2023-02-28T00:56:46;20.70;;;11.05;;
11189;SDS011;5651;50.926;4.718;2023-02-28T00:59:14;22.67;;;12.45;;
11189;SDS011;5651;50.926;4.718;2023-02-28T01:01:41;16.63;;;11.38;;
11189;SDS011;5651;50.926;4.718;2023-02-28T01:04:08;17.88;;;12.02;;
11189;SDS011;5651;50.926;4.718;2023-02-28T01:06:34;18.48;;;11.93;;
11189;SDS011;5651;50.926;4.718;2023-02-28T01:09:00;20.30;;;12.55;;
11189;SDS011;5651;50.926;4.718;2023-02-28T01:11:25;17.85;;;12.40;;
11189;SDS011;5651;50.926;4.718;2023-02-28T01:13:51;19.45;;;12.23;;
11189;SDS011;5651;50.926;4.718;2023-02-28T01:16:17;18.70;;;12.65;;
11189;SDS011;5651;50.926;4.718;2023-02-28T01:18:43;25.63;;;12.10;;
11189;SDS011;5651;50.926;4.718;2023-02-28T01:21:10;16.33;;;11.27;;
11189;SDS011;5651;50.926;4.718;2023-02-28T01:23:38;18.52;;;11.25;;
11189;SDS011;5651;50.926;4.718;2023-02-28T01:26:08;20.35;;;11.57;;
11189;SDS011;5651;50.926;4.718;2023-02-28T01:28:41;17.15;;;11.60;;
11189;SDS011;5651;50.926;4.718;2023-02-28T01:31:08;17.45;;;11.65;;
11189;SDS011;5651;50.926;4.718;2023-02-28T01:33:34;18.90;;;11.95;;
11189;SDS011;5651;50.926;4.718;2023-02-28T01:36:04;18.50;;;11.10;;
11189;SDS011;5651;50.926;4.718;2023-02-28T01:38:32;16.00;;;10.65;;
11189;SDS011;5651;50.926;4.718;2023-02-28T01:40:59;19.20;;;11.95;;
11189;SDS011;5651;50.926;4.718;2023-02-28T01:45:53;19.27;;;11.75;;
11189;SDS011;5651;50.926;4.718;2023-02-28T01:48:20;19.23;;;12.20;;
11189;SDS011;5651;50.926;4.718;2023-02-28T01:50:51;22.95;;;11.82;;
11189;SDS011;5651;50.926;4.718;2023-02-28T01:53:19;18.73;;;11.13;;
11189;SDS011;5651;50.926;4.718;2023-02-28T01:58:18;18.42;;;11.43;;
11189;SDS011;5651;50.926;4.718;2023-02-28T02:00:44;20.38;;;11.77;;
11189;SDS011;5651;50.926;4.718;2023-02-28T02:03:11;21.17;;;13.13;;
11189;SDS011;5651;50.926;4.718;2023-02-28T02:05:40;19.52;;;12.13;;
11189;SDS011;5651;50.926;4.718;2023-02-28T02:08:11;15.60;;;11.82;;
11189;SDS011;5651;50.926;4.718;2023-02-28T02:10:42;18.75;;;12.52;;
11189;SDS011;5651;50.926;4.718;2023-02-28T02:13:16;18.77;;;12.90;;
11189;SDS011;5651;50.926;4.718;2023-02-28T02:16:11;18.45;;;12.35;;
11189;SDS011;5651;50.926;4.718;2023-02-28T02:23:51;19.02;;;11.52;;
11189;SDS011;5651;50.926;4.718;2023-02-28T02:32:20;18.77;;;11.75;;
11189;SDS011;5651;50.926;4.718;2023-02-28T02:35:12;17.45;;;12.18;;
11189;SDS011;5651;50.926;4.718;2023-02-28T02:40:30;20.88;;;12.35;;
11189;SDS011;5651;50.926;4.718;2023-02-28T02:48:01;20.23;;;12.93;;
11189;SDS011;5651;50.926;4.718;2023-02-28T02:50:31;22.48;;;13.68;;
11189;SDS011;5651;50.926;4.718;2023-02-28T02:53:02;20.70;;;12.02;;
11189;SDS011;5651;50.926;4.718;2023-02-28T02:55:31;29.98;;;13.63;;
11189;SDS011;5651;50.926;4.718;2023-02-28T02:58:03;20.20;;;11.93;;
11189;SDS011;5651;50.926;4.718;2023-02-28T03:00:33;18.77;;;12.43;;
11189;SDS011;5651;50.926;4.718;2023-02-28T03:03:03;19.48;;;12.98;;
11189;SDS011;5651;50.926;4.718;2023-02-28T03:05:33;17.70;;;11.98;;
11189;SDS011;5651;50.926;4.718;2023-02-28T03:08:13;19.02;;;12.93;;
11189;SDS011;5651;50.926;4.718;2023-02-28T03:10:41;19.42;;;13.02;;
11189;SDS011;5651;50.926;4.718;2023-02-28T03:22:29;22.33;;;13.35;;
11189;SDS011;5651;50.926;4.718;2023-02-28T03:30:00;21.15;;;13.73;;
11189;SDS011;5651;50.926;4.718;2023-02-28T03:33:18;21.35;;;13.25;;
11189;SDS011;5651;50.926;4.718;2023-02-28T03:35:57;20.48;;;13.27;;
11189;SDS011;5651;50.926;4.718;2023-02-28T03:41:05;19.73;;;12.50;;
11189;SDS011;5651;50.926;4.718;2023-02-28T03:43:38;18.20;;;12.68;;
11189;SDS011;5651;50.926;4.718;2023-02-28T03:46:10;23.77;;;13.90;;
11189;SDS011;5651;50.926;4.718;2023-02-28T03:48:48;19.52;;;13.18;;
11189;SDS011;5651;50.926;4.718;2023-02-28T03:51:21;22.67;;;14.00;;
11189;SDS011;5651;50.926;4.718;2023-02-28T03:53:50;21.98;;;14.30;;
11189;SDS011;5651;50.926;4.718;2023-02-28T03:56:42;24.38;;;13.98;;
11189;SDS011;5651;50.926;4.718;2023-02-28T03:59:13;22.25;;;14.50;;
11189;SDS011;5651;50.926;4.718;2023-02-28T04:01:47;31.30;;;15.73;;
11189;SDS011;5651;50.926;4.718;2023-02-28T04:04:14;23.30;;;15.07;;
11189;SDS011;5651;50.926;4.718;2023-02-28T04:06:41;25.45;;;16.33;;
11189;SDS011;5651;50.926;4.718;2023-02-28T04:09:09;29.88;;;15.32;;
11189;SDS011;5651;50.926;4.718;2023-02-28T04:11:47;27.13;;;16.05;;
11189;SDS011;5651;50.926;4.718;2023-02-28T04:14:19;26.42;;;15.68;;
11189;SDS011;5651;50.926;4.718;2023-02-28T04:16:45;28.60;;;16.80;;
11189;SDS011;5651;50.926;4.718;2023-02-28T04:19:11;35.55;;;16.73;;
11189;SDS011;5651;50.926;4.718;2023-02-28T04:21:39;25.77;;;15.82;;
11189;SDS011;5651;50.926;4.718;2023-02-28T04:24:11;22.10;;;15.45;;
11189;SDS011;5651;50.926;4.718;2023-02-28T04:26:41;22.55;;;15.32;;
11189;SDS011;5651;50.926;4.718;2023-02-28T04:29:09;28.13;;;15.75;;
11189;SDS011;5651;50.926;4.718;2023-02-28T04:31:36;23.55;;;14.85;;
11189;SDS011;5651;50.926;4.718;2023-02-28T04:34:02;22.63;;;14.50;;
11189;SDS011;5651;50.926;4.718;2023-02-28T04:36:28;25.42;;;15.40;;
11189;SDS011;5651;50.926;4.718;2023-02-28T04:38:54;23.52;;;15.05;;
11189;SDS011;5651;50.926;4.718;2023-02-28T04:41:20;25.90;;;15.85;;
11189;SDS011;5651;50.926;4.718;2023-02-28T04:43:46;26.35;;;16.55;;
11189;SDS011;5651;50.926;4.718;2023-02-28T04:46:12;26.10;;;16.00;;
11189;SDS011;5651;50.926;4.718;2023-02-28T04:48:39;26.20;;;15.55;;
11189;SDS011;5651;50.926;4.718;2023-02-28T04:51:07;23.58;;;16.45;;
11189;SDS011;5651;50.926;4.718;2023-02-28T04:53:34;22.88;;;15.07;;
11189;SDS011;5651;50.926;4.718;2023-02-28T04:56:02;24.65;;;15.30;;
11189;SDS011;5651;50.926;4.718;2023-02-28T04:58:27;24.85;;;15.48;;
11189;SDS011;5651;50.926;4.718;2023-02-28T05:00:53;28.42;;;15.45;;
11189;SDS011;5651;50.926;4.718;2023-02-28T05:03:20;58.05;;;19.10;;
11189;SDS011;5651;50.926;4.718;2023-02-28T05:05:47;43.55;;;18.48;;
11189;SDS011;5651;50.926;4.718;2023-02-28T05:08:13;33.13;;;17.90;;
11189;SDS011;5651;50.926;4.718;2023-02-28T05:10:39;37.08;;;16.98;;
11189;SDS011;5651;50.926;4.718;2023-02-28T05:13:05;37.35;;;18.63;;
11189;SDS011;5651;50.926;4.718;2023-02-28T05:15:30;32.95;;;16.63;;
11189;SDS011;5651;50.926;4.718;2023-02-28T05:17:56;29.05;;;15.20;;
11189;SDS011;5651;50.926;4.718;2023-02-28T05:20:22;31.58;;;15.40;;
11189;SDS011;5651;50.926;4.718;2023-02-28T05:22:49;30.45;;;17.52;;
11189;SDS011;5651;50.926;4.718;2023-02-28T05:25:18;27.25;;;17.52;;
11189;SDS011;5651;50.926;4.718;2023-02-28T05:27:47;28.25;;;16.52;;
11189;SDS011;5651;50.926;4.718;2023-02-28T05:30:13;30.95;;;17.08;;
11189;SDS011;5651;50.926;4.718;2023-02-28T05:32:39;30.17;;;17.88;;
11189;SDS011;5651;50.926;4.718;2023-02-28T05:35:09;34.40;;;17.83;;
11189;SDS011;5651;50.926;4.718;2023-02-28T05:37:37;33.05;;;18.73;;
11189;SDS011;5651;50.926;4.718;2023-02-28T05:40:04;30.77;;;17.48;;
11189;SDS011;5651;50.926;4.718;2023-02-28T05:42:32;29.42;;;17.23;;
11189;SDS011;5651;50.926;4.718;2023-02-28T05:44:58;33.88;;;22.10;;
11189;SDS011;5651;50.926;4.718;2023-02-28T05:47:24;30.92;;;19.52;;
11189;SDS011;5651;50.926;4.718;2023-02-28T05:49:50;33.20;;;19.80;;
11189;SDS011;5651;50.926;4.718;2023-02-28T05:52:16;32.83;;;19.50;;
11189;SDS011;5651;50.926;4.718;2023-02-28T05:54:42;28.30;;;17.95;;
11189;SDS011;5651;50.926;4.718;2023-02-28T05:57:08;31.15;;;17.52;;
11189;SDS011;5651;50.926;4.718;2023-02-28T05:59:34;30.00;;;18.95;;
11189;SDS011;5651;50.926;4.718;2023-02-28T06:01:59;25.05;;;17.30;;
11189;SDS011;5651;50.926;4.718;2023-02-28T06:04:25;26.98;;;16.08;;
11189;SDS011;5651;50.926;4.718;2023-02-28T06:06:51;25.55;;;16.45;;
11189;SDS011;5651;50.926;4.718;2023-02-28T06:09:17;28.15;;;17.40;;
11189;SDS011;5651;50.926;4.718;2023-02-28T06:11:43;28.17;;;17.83;;
11189;SDS011;5651;50.926;4.718;2023-02-28T06:14:14;26.13;;;16.88;;
11189;SDS011;5651;50.926;4.718;2023-02-28T06:16:42;30.60;;;16.38;;
11189;SDS011;5651;50.926;4.718;2023-02-28T06:19:08;27.00;;;17.38;;
11189;SDS011;5651;50.926;4.718;2023-02-28T06:21:35;27.42;;;16.70;;
11189;SDS011;5651;50.926;4.718;2023-02-28T06:24:01;28.77;;;17.42;;
11189;SDS011;5651;50.926;4.718;2023-02-28T06:26:28;25.17;;;17.02;;
11189;SDS011;5651;50.926;4.718;2023-02-28T06:28:54;27.75;;;17.02;;
11189;SDS011;5651;50.926;4.718;2023-02-28T06:31:20;26.80;;;17.30;;
11189;SDS011;5651;50.926;4.718;2023-02-28T06:33:47;26.25;;;17.50;;
11189;SDS011;5651;50.926;4.718;2023-02-28T06:36:14;26.85;;;17.65;;
11189;SDS011;5651;50.926;4.718;2023-02-28T06:38:40;27.73;;;17.73;;
11189;SDS011;5651;50.926;4.718;2023-02-28T06:41:06;32.30;;;18.20;;
11189;SDS011;5651;50.926;4.718;2023-02-28T06:43:34;27.73;;;17.63;;
11189;SDS011;5651;50.926;4.718;2023-02-28T06:46:04;27.55;;;16.77;;
11189;SDS011;5651;50.926;4.718;2023-02-28T06:48:31;23.80;;;15.25;;
11189;SDS011;5651;50.926;4.718;2023-02-28T06:53:31;25.30;;;16.70;;
11189;SDS011;5651;50.926;4.718;2023-02-28T06:55:58;29.15;;;17.67;;
11189;SDS011;5651;50.926;4.718;2023-02-28T06:58:24;28.55;;;16.50;;
11189;SDS011;5651;50.926;4.718;2023-02-28T07:00:50;23.65;;;17.08;;
11189;SDS011;5651;50.926;4.718;2023-02-28T07:03:17;27.35;;;17.48;;
11189;SDS011;5651;50.926;4.718;2023-02-28T07:05:44;25.13;;;17.70;;
11189;SDS011;5651;50.926;4.718;2023-02-28T07:08:10;26.75;;;18.05;;
11189;SDS011;5651;50.926;4.718;2023-02-28T07:10:37;28.13;;;17.67;;
11189;SDS011;5651;50.926;4.718;2023-02-28T07:13:03;26.35;;;17.85;;
11189;SDS011;5651;50.926;4.718;2023-02-28T07:15:30;31.70;;;18.15;;
11189;SDS011;5651;50.926;4.718;2023-02-28T07:17:55;28.30;;;16.88;;
11189;SDS011;5651;50.926;4.718;2023-02-28T07:20:22;29.48;;;17.85;;
11189;SDS011;5651;50.926;4.718;2023-02-28T07:22:48;50.03;;;23.48;;
11189;SDS011;5651;50.926;4.718;2023-02-28T07:25:24;44.03;;;22.23;;
11189;SDS011;5651;50.926;4.718;2023-02-28T07:27:51;65.20;;;30.75;;
11189;SDS011;5651;50.926;4.718;2023-02-28T07:30:17;51.58;;;27.27;;
11189;SDS011;5651;50.926;4.718;2023-02-28T07:32:43;60.83;;;27.27;;
11189;SDS011;5651;50.926;4.718;2023-02-28T07:35:08;51.72;;;25.85;;
11189;SDS011;5651;50.926;4.718;2023-02-28T07:37:34;47.00;;;21.88;;
11189;SDS011;5651;50.926;4.718;2023-02-28T07:40:04;40.45;;;22.27;;
11189;SDS011;5651;50.926;4.718;2023-02-28T07:42:34;30.27;;;20.35;;
11189;SDS011;5651;50.926;4.718;2023-02-28T07:45:01;27.90;;;18.05;;
11189;SDS011;5651;50.926;4.718;2023-02-28T07:47:28;27.45;;;16.77;;
11189;SDS011;5651;50.926;4.718;2023-02-28T07:49:55;31.85;;;19.00;;
11189;SDS011;5651;50.926;4.718;2023-02-28T07:52:21;32.53;;;19.95;;
11189;SDS011;5651;50.926;4.718;2023-02-28T07:54:49;31.80;;;18.65;;
11189;SDS011;5651;50.926;4.718;2023-02-28T07:57:15;27.83;;;18.55;;
11189;SDS011;5651;50.926;4.718;2023-02-28T07:59:41;23.95;;;16.02;;
11189;SDS011;5651;50.926;4.718;2023-02-28T08:02:09;27.25;;;16.58;;
11189;SDS011;5651;50.926;4.718;2023-02-28T08:07:06;30.13;;;16.52;;
11189;SDS011;5651;50.926;4.718;2023-02-28T08:09:31;24.92;;;15.93;;
11189;SDS011;5651;50.926;4.718;2023-02-28T08:11:57;22.17;;;14.02;;
11189;SDS011;5651;50.926;4.718;2023-02-28T08:14:23;23.73;;;14.73;;
11189;SDS011;5651;50.926;4.718;2023-02-28T08:16:49;23.85;;;14.00;;
11189;SDS011;5651;50.926;4.718;2023-02-28T08:19:15;23.38;;;13.30;;
11189;SDS011;5651;50.926;4.718;2023-02-28T08:21:40;18.77;;;12.23;;
11189;SDS011;5651;50.926;4.718;2023-02-28T08:24:06;22.25;;;12.23;;
11189;SDS011;5651;50.926;4.718;2023-02-28T08:26:32;14.00;;;10.80;;
11189;SDS011;5651;50.926;4.718;2023-02-28T08:28:58;17.35;;;11.90;;
11189;SDS011;5651;50.926;4.718;2023-02-28T08:31:24;18.15;;;11.02;;
11189;SDS011;5651;50.926;4.718;2023-02-28T08:33:50;20.40;;;10.85;;
11189;SDS011;5651;50.926;4.718;2023-02-28T08:36:17;19.13;;;10.57;;
11189;SDS011;5651;50.926;4.718;2023-02-28T08:38:43;16.83;;;10.02;;
11189;SDS011;5651;50.926;4.718;2023-02-28T08:41:10;23.15;;;11.93;;
11189;SDS011;5651;50.926;4.718;2023-02-28T08:43:38;15.80;;;9.95;;
11189;SDS011;5651;50.926;4.718;2023-02-28T08:46:05;16.02;;;9.25;;
11189;SDS011;5651;50.926;4.718;2023-02-28T08:48:32;11.73;;;8.43;;
11189;SDS011;5651;50.926;4.718;2023-02-28T08:51:04;15.73;;;9.38;;
11189;SDS011;5651;50.926;4.718;2023-02-28T08:53:32;14.83;;;8.43;;
11189;SDS011;5651;50.926;4.718;2023-02-28T08:55:59;14.55;;;8.55;;
11189;SDS011;5651;50.926;4.718;2023-02-28T08:58:27;14.25;;;8.05;;
11189;SDS011;5651;50.926;4.718;2023-02-28T09:00:53;12.32;;;8.15;;
11189;SDS011;5651;50.926;4.718;2023-02-28T09:03:19;14.32;;;8.38;;
11189;SDS011;5651;50.926;4.718;2023-02-28T09:06:20;12.95;;;7.63;;
11189;SDS011;5651;50.926;4.718;2023-02-28T09:08:38;10.60;;;6.85;;
11189;SDS011;5651;50.926;4.718;2023-02-28T09:11:04;13.40;;;7.90;;
11189;SDS011;5651;50.926;4.718;2023-02-28T09:13:30;12.30;;;7.93;;
11189;SDS011;5651;50.926;4.718;2023-02-28T09:15:58;8.90;;;6.10;;
11189;SDS011;5651;50.926;4.718;2023-02-28T09:18:25;10.05;;;6.95;;
11189;SDS011;5651;50.926;4.718;2023-02-28T09:20:51;11.18;;;6.68;;
11189;SDS011;5651;50.926;4.718;2023-02-28T09:23:17;11.85;;;7.03;;
11189;SDS011;5651;50.926;4.718;2023-02-28T09:25:47;11.07;;;6.88;;
11189;SDS011;5651;50.926;4.718;2023-02-28T09:28:14;11.55;;;6.57;;
11189;SDS011;5651;50.926;4.718;2023-02-28T09:30:41;10.38;;;6.47;;
11189;SDS011;5651;50.926;4.718;2023-02-28T09:33:07;7.90;;;5.15;;
11189;SDS011;5651;50.926;4.718;2023-02-28T09:35:33;8.23;;;5.13;;
11189;SDS011;5651;50.926;4.718;2023-02-28T09:37:59;11.75;;;5.28;;
11189;SDS011;5651;50.926;4.718;2023-02-28T09:40:24;10.00;;;5.90;;
11189;SDS011;5651;50.926;4.718;2023-02-28T09:42:52;10.00;;;5.97;;
11189;SDS011;5651;50.926;4.718;2023-02-28T09:45:28;8.60;;;5.22;;
11189;SDS011;5651;50.926;4.718;2023-02-28T09:48:06;8.88;;;6.05;;
11189;SDS011;5651;50.926;4.718;2023-02-28T09:50:50;12.10;;;6.25;;
11189;SDS011;5651;50.926;4.718;2023-02-28T09:53:22;9.18;;;5.80;;
11189;SDS011;5651;50.926;4.718;2023-02-28T09:56:11;7.30;;;4.28;;
11189;SDS011;5651;50.926;4.718;2023-02-28T10:03:55;8.20;;;4.90;;
11189;SDS011;5651;50.926;4.718;2023-02-28T10:06:32;7.35;;;4.60;;
11189;SDS011;5651;50.926;4.718;2023-02-28T10:12:03;8.80;;;3.90;;
11189;SDS011;5651;50.926;4.718;2023-02-28T10:14:32;7.40;;;3.95;;
11189;SDS011;5651;50.926;4.718;2023-02-28T10:19:42;7.47;;;4.68;;
11189;SDS011;5651;50.926;4.718;2023-02-28T10:22:17;7.35;;;5.00;;
11189;SDS011;5651;50.926;4.718;2023-02-28T10:28:07;8.27;;;4.82;;
11189;SDS011;5651;50.926;4.718;2023-02-28T10:30:43;9.63;;;5.10;;
11189;SDS011;5651;50.926;4.718;2023-02-28T10:33:24;8.32;;;4.88;;
11189;SDS011;5651;50.926;4.718;2023-02-28T10:35:50;6.57;;;4.80;;
11189;SDS011;5651;50.926;4.718;2023-02-28T10:38:19;6.32;;;4.15;;
11189;SDS011;5651;50.926;4.718;2023-02-28T10:40:47;7.32;;;4.32;;
11189;SDS011;5651;50.926;4.718;2023-02-28T10:45:38;5.88;;;3.50;;
11189;SDS011;5651;50.926;4.718;2023-02-28T10:55:35;7.60;;;4.20;;
11189;SDS011;5651;50.926;4.718;2023-02-28T10:58:02;6.53;;;4.10;;
11189;SDS011;5651;50.926;4.718;2023-02-28T11:00:34;8.38;;;3.97;;
11189;SDS011;5651;50.926;4.718;2023-02-28T11:03:01;7.72;;;3.95;;
11189;SDS011;5651;50.926;4.718;2023-02-28T11:05:31;5.28;;;4.07;;
11189;SDS011;5651;50.926;4.718;2023-02-28T11:08:03;5.35;;;3.83;;
11189;SDS011;5651;50.926;4.718;2023-02-28T11:10:36;24.33;;;5.32;;
11189;SDS011;5651;50.926;4.718;2023-02-28T11:13:02;6.63;;;3.90;;
11189;SDS011;5651;50.926;4.718;2023-02-28T11:15:32;6.03;;;3.67;;
11189;SDS011;5651;50.926;4.718;2023-02-28T11:18:00;5.13;;;3.70;;
11189;SDS011;5651;50.926;4.718;2023-02-28T11:20:28;6.45;;;3.55;;
11189;SDS011;5651;50.926;4.718;2023-02-28T11:22:57;5.75;;;4.72;;
11189;SDS011;5651;50.926;4.718;2023-02-28T11:25:27;8.68;;;4.13;;
11189;SDS011;5651;50.926;4.718;2023-02-28T11:27:56;7.22;;;3.78;;
11189;SDS011;5651;50.926;4.718;2023-02-28T11:30:27;6.43;;;4.43;;
11189;SDS011;5651;50.926;4.718;2023-02-28T11:32:53;6.10;;;3.53;;
11189;SDS011;5651;50.926;4.718;2023-02-28T11:35:38;5.55;;;3.22;;
11189;SDS011;5651;50.926;4.718;2023-02-28T11:38:07;5.90;;;3.60;;
11189;SDS011;5651;50.926;4.718;2023-02-28T11:43:38;6.93;;;4.05;;
11189;SDS011;5651;50.926;4.718;2023-02-28T11:51:56;7.45;;;3.47;;
11189;SDS011;5651;50.926;4.718;2023-02-28T11:57:36;5.50;;;3.58;;
11189;SDS011;5651;50.926;4.718;2023-02-28T12:03:03;5.28;;;2.97;;
11189;SDS011;5651;50.926;4.718;2023-02-28T12:08:02;10.05;;;4.55;;
11189;SDS011;5651;50.926;4.718;2023-02-28T12:11:19;7.53;;;3.67;;
11189;SDS011;5651;50.926;4.718;2023-02-28T12:19:56;6.45;;;3.85;;
11189;SDS011;5651;50.926;4.718;2023-02-28T12:22:40;5.10;;;3.65;;
11189;SDS011;5651;50.926;4.718;2023-02-28T12:28:14;7.93;;;3.85;;
11189;SDS011;5651;50.926;4.718;2023-02-28T12:30:47;5.43;;;3.53;;
11189;SDS011;5651;50.926;4.718;2023-02-28T12:33:20;4.95;;;3.30;;
11189;SDS011;5651;50.926;4.718;2023-02-28T12:35:53;7.53;;;4.05;;
11189;SDS011;5651;50.926;4.718;2023-02-28T12:38:22;4.95;;;3.65;;
11189;SDS011;5651;50.926;4.718;2023-02-28T12:40:54;5.47;;;3.20;;
11189;SDS011;5651;50.926;4.718;2023-02-28T12:43:26;4.50;;;3.43;;
11189;SDS011;5651;50.926;4.718;2023-02-28T12:45:57;6.75;;;3.95;;
11189;SDS011;5651;50.926;4.718;2023-02-28T12:48:41;9.57;;;4.53;;
11189;SDS011;5651;50.926;4.718;2023-02-28T12:51:13;9.07;;;4.63;;
11189;SDS011;5651;50.926;4.718;2023-02-28T12:56:33;5.65;;;3.88;;
11189;SDS011;5651;50.926;4.718;2023-02-28T12:59:36;5.13;;;3.60;;
11189;SDS011;5651;50.926;4.718;2023-02-28T13:02:17;4.82;;;3.65;;
11189;SDS011;5651;50.926;4.718;2023-02-28T13:08:03;8.07;;;4.32;;
11189;SDS011;5651;50.926;4.718;2023-02-28T13:10:24;6.03;;;3.53;;
11189;SDS011;5651;50.926;4.718;2023-02-28T13:12:53;5.90;;;3.75;;
11189;SDS011;5651;50.926;4.718;2023-02-28T13:17:57;5.53;;;3.53;;
11189;SDS011;5651;50.926;4.718;2023-02-28T13:20:34;7.63;;;3.80;;
11189;SDS011;5651;50.926;4.718;2023-02-28T13:23:01;7.20;;;3.72;;
11189;SDS011;5651;50.926;4.718;2023-02-28T13:27:59;5.65;;;3.88;;
11189;SDS011;5651;50.926;4.718;2023-02-28T13:47:23;5.10;;;3.35;;
11189;SDS011;5651;50.926;4.718;2023-02-28T13:51:50;7.20;;;3.58;;
11189;SDS011;5651;50.926;4.718;2023-02-28T13:54:43;8.57;;;4.55;;
11189;SDS011;5651;50.926;4.718;2023-02-28T14:06:29;6.30;;;4.22;;
11189;SDS011;5651;50.926;4.718;2023-02-28T14:09:01;7.50;;;3.80;;
11189;SDS011;5651;50.926;4.718;2023-02-28T14:11:33;5.85;;;3.92;;
11189;SDS011;5651;50.926;4.718;2023-02-28T14:14:02;6.97;;;4.13;;
11189;SDS011;5651;50.926;4.718;2023-02-28T14:16:50;4.93;;;4.10;;
11189;SDS011;5651;50.926;4.718;2023-02-28T14:36:01;6.18;;;4.18;;
11189;SDS011;5651;50.926;4.718;2023-02-28T14:38:54;6.25;;;4.10;;
11189;SDS011;5651;50.926;4.718;2023-02-28T14:41:29;7.90;;;5.22;;
11189;SDS011;5651;50.926;4.718;2023-02-28T14:44:00;5.47;;;4.20;;
11189;SDS011;5651;50.926;4.718;2023-02-28T14:46:37;4.78;;;4.28;;
11189;SDS011;5651;50.926;4.718;2023-02-28T14:49:05;9.35;;;4.43;;
11189;SDS011;5651;50.926;4.718;2023-02-28T14:51:34;7.43;;;4.78;;
11189;SDS011;5651;50.926;4.718;2023-02-28T14:54:01;5.20;;;4.22;;
11189;SDS011;5651;50.926;4.718;2023-02-28T14:56:30;8.95;;;4.38;;
11189;SDS011;5651;50.926;4.718;2023-02-28T14:59:00;5.68;;;4.07;;
11189;SDS011;5651;50.926;4.718;2023-02-28T15:01:26;6.00;;;4.18;;
11189;SDS011;5651;50.926;4.718;2023-02-28T15:04:16;9.02;;;5.30;;
11189;SDS011;5651;50.926;4.718;2023-02-28T15:06:43;9.68;;;4.75;;
11189;SDS011;5651;50.926;4.718;2023-02-28T15:09:16;6.53;;;4.93;;
11189;SDS011;5651;50.926;4.718;2023-02-28T15:11:50;9.82;;;6.70;;
11189;SDS011;5651;50.926;4.718;2023-02-28T15:14:19;7.78;;;5.55;;
11189;SDS011;5651;50.926;4.718;2023-02-28T15:16:49;9.75;;;5.15;;
11189;SDS011;5651;50.926;4.718;2023-02-28T15:19:25;9.95;;;5.15;;
11189;SDS011;5651;50.926;4.718;2023-02-28T15:22:00;9.30;;;5.55;;
11189;SDS011;5651;50.926;4.718;2023-02-28T15:26:57;10.75;;;6.15;;
11189;SDS011;5651;50.926;4.718;2023-02-28T15:29:25;11.60;;;6.38;;
11189;SDS011;5651;50.926;4.718;2023-02-28T15:32:03;10.55;;;6.85;;
11189;SDS011;5651;50.926;4.718;2023-02-28T15:34:35;7.30;;;4.80;;
11189;SDS011;5651;50.926;4.718;2023-02-28T15:37:01;10.55;;;4.70;;
11189;SDS011;5651;50.926;4.718;2023-02-28T15:39:31;7.82;;;5.60;;
11189;SDS011;5651;50.926;4.718;2023-02-28T15:42:12;5.88;;;4.40;;
11189;SDS011;5651;50.926;4.718;2023-02-28T15:44:49;6.88;;;4.20;;
11189;SDS011;5651;50.926;4.718;2023-02-28T15:47:22;5.45;;;4.15;;
11189;SDS011;5651;50.926;4.718;2023-02-28T15:49:50;6.18;;;4.95;;
11189;SDS011;5651;50.926;4.718;2023-02-28T15:52:20;8.85;;;4.88;;
11189;SDS011;5651;50.926;4.718;2023-02-28T15:54:51;5.47;;;4.15;;
11189;SDS011;5651;50.926;4.718;2023-02-28T15:57:18;10.38;;;6.78;;
11189;SDS011;5651;50.926;4.718;2023-02-28T15:59:57;8.45;;;4.57;;
11189;SDS011;5651;50.926;4.718;2023-02-28T16:02:35;8.77;;;5.40;;
11189;SDS011;5651;50.926;4.718;2023-02-28T16:07:31;7.93;;;4.30;;
11189;SDS011;5651;50.926;4.718;2023-02-28T16:09:58;8.32;;;5.50;;
11189;SDS011;5651;50.926;4.718;2023-02-28T16:12:29;6.35;;;4.47;;
11189;SDS011;5651;50.926;4.718;2023-02-28T16:14:57;8.70;;;4.60;;
11189;SDS011;5651;50.926;4.718;2023-02-28T16:17:28;15.13;;;5.43;;
11189;SDS011;5651;50.926;4.718;2023-02-28T16:19:56;15.38;;;6.40;;
11189;SDS011;5651;50.926;4.718;2023-02-28T16:22:23;9.07;;;5.30;;
11189;SDS011;5651;50.926;4.718;2023-02-28T16:24:49;7.18;;;4.80;;
11189;SDS011;5651;50.926;4.718;2023-02-28T16:27:20;8.35;;;5.10;;
11189;SDS011;5651;50.926;4.718;2023-02-28T16:29:50;7.78;;;4.60;;
11189;SDS011;5651;50.926;4.718;2023-02-28T16:32:16;6.43;;;4.15;;
11189;SDS011;5651;50.926;4.718;2023-02-28T16:34:43;7.35;;;4.07;;
11189;SDS011;5651;50.926;4.718;2023-02-28T16:37:13;7.85;;;4.72;;
11189;SDS011;5651;50.926;4.718;2023-02-28T16:39:40;8.35;;;4.63;;
11189;SDS011;5651;50.926;4.718;2023-02-28T16:42:07;6.32;;;4.30;;
11189;SDS011;5651;50.926;4.718;2023-02-28T16:44:36;8.25;;;4.57;;
11189;SDS011;5651;50.926;4.718;2023-02-28T16:47:03;7.78;;;4.65;;
11189;SDS011;5651;50.926;4.718;2023-02-28T16:49:29;9.98;;;5.93;;
11189;SDS011;5651;50.926;4.718;2023-02-28T16:51:55;6.10;;;4.15;;
11189;SDS011;5651;50.926;4.718;2023-02-28T16:54:21;10.98;;;6.38;;
11189;SDS011;5651;50.926;4.718;2023-02-28T16:56:47;12.68;;;6.15;;
11189;SDS011;5651;50.926;4.718;2023-02-28T16:59:14;6.28;;;5.28;;
11189;SDS011;5651;50.926;4.718;2023-02-28T17:01:44;12.18;;;6.53;;
11189;SDS011;5651;50.926;4.718;2023-02-28T17:04:10;7.13;;;5.60;;
11189;SDS011;5651;50.926;4.718;2023-02-28T17:06:37;9.00;;;5.95;;
11189;SDS011;5651;50.926;4.718;2023-02-28T17:09:03;14.05;;;8.63;;
11189;SDS011;5651;50.926;4.718;2023-02-28T17:11:29;7.50;;;4.72;;
11189;SDS011;5651;50.926;4.718;2023-02-28T17:13:55;8.23;;;4.82;;
11189;SDS011;5651;50.926;4.718;2023-02-28T17:16:31;8.68;;;5.40;;
11189;SDS011;5651;50.926;4.718;2023-02-28T17:19:02;8.70;;;5.80;;
11189;SDS011;5651;50.926;4.718;2023-02-28T17:21:30;11.20;;;8.30;;
11189;SDS011;5651;50.926;4.718;2023-02-28T17:23:56;12.32;;;6.95;;
11189;SDS011;5651;50.926;4.718;2023-02-28T17:26:23;6.95;;;4.72;;
11189;SDS011;5651;50.926;4.718;2023-02-28T17:28:53;13.10;;;6.68;;
11189;SDS011;5651;50.926;4.718;2023-02-28T17:31:24;11.10;;;5.78;;
11189;SDS011;5651;50.926;4.718;2023-02-28T17:33:50;7.50;;;5.32;;
11189;SDS011;5651;50.926;4.718;2023-02-28T17:36:23;9.10;;;6.38;;